Black, MO

8:25 AM CDT on April 27, 2015 (GMT -0500)
RAWS | | Change Station
CLOSE
Current Station
Personal Weather Station
Location: Belleview, MO
Elevation: 1321 ft
Nearby Weather Stations

Elev 1321 ft 37.72 °N, 90.93 °W | Updated 31 minutes ago

Clear
Clear
44 °F
Feels Like 44 °F
N
3
Wind Variable Wind from ENE
Gusts 6.0 mph

Today
High -- | Low -- °F
--% Chance of Precip.
Yesterday
High -- | Low -- °F
Precip. -- in
6:13 AM 7:50 PM
Waxing Gibbous, 65% visible
Pressure 30.11 in
Visibility 10.0 miles
Clouds Clear
Windchill 44 °F
Dew Point 32 °F
Humidity 63%
Rainfall in
Snow Depth Not available.
UV 2 out of 12
Pollen 10.00 out of 12
Air Quality Not available.
Flu Activity Local Activity
METAR KFAM 271315Z AUTO 02004KT 10SM CLR 08/01 A3011 RMK AO1

More Conditions Fewer Conditions

Pressure 30.11 in
Visibility 10.0 miles
Clouds Clear
Windchill 44 °F
Dew Point 32 °F
Humidity 63%
Rainfall in
Snow Depth Not available.
UV 2 out of 12
Pollen 10.00 out of 12
Air Quality Not available.
Flu Activity Local Activity
METAR KFAM 271315Z AUTO 02004KT 10SM CLR 08/01 A3011 RMK AO1

More Conditions Fewer Conditions

10-Day Weather Forecast

Almanac

Astronomy

Apr. 27, 2015 Rise Set
Actual Time
Civil Twilight
Nautical Twilight
Astronomical Twilight
Moon
Length of Visible Light
Length of Day
Tomorrow will be .
, % of the Moon is Illuminated

Today's Extremes

State Highs State Lows

Community

WunderPhotos

Upload Photos

1,817,307 photos uploaded!

WunderBlogs® & News

Nearby

Air Quality

  Air Quality AQ Index Pollutant
Not available.

Snow Depth

Station Depth Elevation

Earthquake Activity

City Distance Mag. Time & Date
Minimum magnitude displayed is 2.5.

Coastal Water Temperatures

Place Temperature

Stations

Nearby Weather Stations

Station Location Temp. Windchill Dew Point Humidity Wind Precip. Elev Updated Type